createdAt,value
2019-05-14T00:01:37.134Z,7.30
2019-05-14T00:04:42.311Z,7.20
2019-05-14T00:07:47.075Z,7.20
2019-05-14T00:10:52.085Z,7.10
2019-05-14T00:13:56.982Z,7.10
2019-05-14T00:17:01.748Z,7.00
2019-05-14T00:20:10.225Z,6.90
2019-05-14T00:23:14.552Z,6.90
2019-05-14T00:26:21.345Z,6.90
2019-05-14T00:29:25.772Z,6.90
2019-05-14T00:32:31.758Z,6.80
2019-05-14T00:35:36.321Z,6.70
2019-05-14T00:38:41.980Z,6.70
2019-05-14T00:41:46.831Z,6.60
2019-05-14T00:44:57.409Z,6.50
2019-05-14T00:47:57.424Z,6.40
2019-05-14T00:51:02.502Z,6.40
2019-05-14T00:54:07.393Z,6.40
2019-05-14T00:57:12.184Z,6.40
2019-05-14T01:00:16.734Z,6.30
2019-05-14T01:03:21.741Z,6.20
2019-05-14T01:06:26.364Z,6.20
2019-05-14T01:09:31.437Z,6.20
2019-05-14T01:12:36.036Z,6.20
2019-05-14T01:15:41.456Z,6.20
2019-05-14T01:18:46.363Z,6.20
2019-05-14T01:21:51.228Z,6.20
2019-05-14T01:24:55.575Z,6.20
2019-05-14T01:28:02.178Z,6.20
2019-05-14T01:31:06.506Z,6.30
2019-05-14T01:34:11.303Z,6.20
2019-05-14T01:37:15.847Z,6.20
2019-05-14T01:40:21.862Z,6.10
2019-05-14T01:43:26.504Z,6.00
2019-05-14T01:46:31.643Z,5.90
2019-05-14T01:49:36.257Z,5.80
2019-05-14T01:52:41.482Z,5.80
2019-05-14T01:55:46.203Z,5.70
2019-05-14T01:58:52.292Z,5.70
2019-05-14T02:01:56.957Z,5.70
2019-05-14T02:05:02.098Z,5.60
2019-05-14T02:08:06.613Z,5.60
2019-05-14T02:11:12.106Z,5.70
2019-05-14T02:14:16.656Z,5.60
2019-05-14T02:17:21.387Z,5.60
2019-05-14T02:20:26.400Z,5.50
2019-05-14T02:23:32.061Z,5.60
2019-05-14T02:26:36.925Z,5.50
2019-05-14T02:29:41.856Z,5.40
2019-05-14T02:32:49.576Z,5.40
2019-05-14T02:35:52.587Z,5.30
2019-05-14T02:39:00.099Z,5.30
2019-05-14T02:42:03.251Z,5.30
2019-05-14T02:45:09.211Z,5.20
2019-05-14T02:48:13.710Z,5.20
2019-05-14T02:51:19.960Z,5.20
2019-05-14T02:54:24.353Z,5.10
2019-05-14T02:57:30.417Z,5.10
2019-05-14T03:00:34.996Z,5.10
2019-05-14T03:03:40.427Z,5.10
2019-05-14T03:06:45.037Z,5.10
2019-05-14T03:09:50.271Z,5.20
2019-05-14T03:12:55.226Z,5.30
2019-05-14T03:16:01.388Z,5.40
2019-05-14T03:19:06.152Z,5.50
2019-05-14T03:22:11.360Z,5.50
2019-05-14T03:25:19.166Z,5.50
2019-05-14T03:28:22.119Z,5.40
2019-05-14T03:31:32.231Z,5.40
2019-05-14T03:34:33.886Z,5.40
2019-05-14T03:37:39.205Z,5.20
2019-05-14T03:40:43.644Z,5.10
2019-05-14T03:43:49.449Z,5.00
2019-05-14T03:46:55.974Z,5.00
2019-05-14T03:50:00.340Z,5.00
2019-05-14T03:53:04.770Z,5.10
2019-05-14T03:56:10.453Z,5.00
2019-05-14T03:59:15.040Z,5.00
2019-05-14T04:02:20.104Z,4.80
2019-05-14T04:05:24.979Z,4.80
2019-05-14T04:08:32.707Z,4.70
2019-05-14T04:11:39.830Z,4.70
2019-05-14T04:14:45.952Z,4.80
2019-05-14T04:17:50.816Z,4.80
2019-05-14T04:20:59.842Z,4.80
2019-05-14T04:24:05.229Z,4.80
2019-05-14T04:27:13.076Z,4.70
2019-05-14T04:30:23.593Z,4.70
2019-05-14T04:33:29.905Z,4.80
2019-05-14T04:36:32.809Z,4.70
2019-05-14T04:39:39.650Z,4.70
2019-05-14T04:42:44.673Z,4.70
2019-05-14T04:45:50.164Z,4.80
2019-05-14T04:48:55.119Z,4.80
2019-05-14T04:51:59.915Z,4.90
2019-05-14T04:55:05.152Z,5.00
2019-05-14T04:58:10.250Z,5.00
2019-05-14T05:01:14.865Z,5.10
2019-05-14T05:04:20.224Z,5.20
2019-05-14T05:07:25.004Z,5.40
2019-05-14T05:10:29.862Z,5.60
2019-05-14T05:13:34.751Z,5.80
2019-05-14T05:16:39.423Z,6.00
2019-05-14T05:19:45.767Z,6.20
2019-05-14T05:22:50.051Z,6.40
2019-05-14T05:25:54.486Z,6.60
2019-05-14T05:29:05.868Z,6.80
2019-05-14T05:32:05.686Z,6.90
2019-05-14T05:35:10.185Z,7.00
2019-05-14T05:38:15.361Z,7.20
2019-05-14T05:41:19.796Z,7.30
2019-05-14T05:44:24.221Z,7.50
2019-05-14T05:47:28.907Z,7.50
2019-05-14T05:50:33.363Z,7.60
2019-05-14T05:53:39.425Z,7.70
2019-05-14T05:56:44.351Z,7.90
2019-05-14T05:59:48.824Z,8.10
2019-05-14T06:02:53.221Z,8.10
2019-05-14T06:05:59.337Z,8.30
2019-05-14T06:09:04.940Z,8.60
2019-05-14T06:12:09.646Z,8.80
2019-05-14T06:15:14.562Z,9.10
2019-05-14T06:18:22.182Z,9.40
2019-05-14T06:21:25.598Z,9.70
2019-05-14T06:24:30.031Z,9.90
2019-05-14T06:27:34.739Z,10.10
2019-05-14T06:30:41.225Z,10.30
2019-05-14T06:33:48.408Z,10.40
2019-05-14T06:36:51.839Z,10.70
2019-05-14T06:39:58.417Z,10.90
2019-05-14T06:43:02.789Z,11.20
2019-05-14T06:46:08.981Z,11.40
2019-05-14T06:49:13.688Z,11.40
2019-05-14T06:52:18.872Z,11.60
2019-05-14T06:55:23.436Z,11.60
2019-05-14T06:58:29.826Z,11.90
2019-05-14T07:01:34.056Z,12.20
2019-05-14T07:04:39.456Z,12.40
2019-05-14T07:07:44.639Z,12.80
2019-05-14T07:10:49.072Z,13.20
2019-05-14T07:13:53.504Z,13.50
2019-05-14T07:16:58.832Z,13.90
2019-05-14T07:20:04.872Z,14.20
2019-05-14T07:23:09.311Z,14.40
2019-05-14T07:26:14.041Z,14.60
2019-05-14T07:29:18.708Z,14.70
2019-05-14T07:32:23.243Z,14.70
2019-05-14T07:35:28.814Z,14.70
2019-05-14T07:38:33.476Z,14.60
2019-05-14T07:41:39.051Z,14.60
2019-05-14T07:44:43.987Z,14.70
2019-05-14T07:47:49.349Z,14.50
2019-05-14T07:50:54.243Z,14.60
2019-05-14T07:53:58.683Z,14.70
2019-05-14T07:57:03.395Z,14.80
2019-05-14T08:00:13.031Z,14.90
2019-05-14T08:03:19.016Z,15.00
2019-05-14T08:06:23.935Z,15.20
2019-05-14T08:09:28.542Z,15.30
2019-05-14T08:12:33.290Z,15.30
2019-05-14T08:15:38.702Z,15.40
2019-05-14T08:18:43.677Z,15.40
2019-05-14T08:21:48.294Z,15.40
2019-05-14T08:24:53.039Z,15.50
2019-05-14T08:27:58.660Z,15.60
2019-05-14T08:31:03.194Z,15.70
2019-05-14T08:34:09.232Z,15.80
2019-05-14T08:37:13.870Z,15.90
2019-05-14T08:40:20.995Z,16.10
2019-05-14T08:43:25.823Z,16.10
2019-05-14T08:46:30.657Z,16.20
2019-05-14T08:49:42.585Z,16.30
2019-05-14T08:52:41.863Z,16.40
2019-05-14T08:55:48.471Z,16.30
2019-05-14T08:58:52.754Z,16.40
2019-05-14T09:02:05.840Z,16.50
2019-05-14T09:05:05.010Z,16.60
2019-05-14T09:08:09.786Z,16.70
2019-05-14T09:11:14.565Z,17.00
2019-05-14T09:14:18.992Z,16.80
2019-05-14T09:17:23.426Z,16.40
2019-05-14T09:20:29.014Z,16.10
2019-05-14T09:23:33.877Z,15.50
2019-05-14T09:26:39.080Z,15.00
2019-05-14T09:29:44.058Z,14.70
2019-05-14T09:32:49.404Z,14.60
2019-05-14T09:36:09.798Z,14.60
2019-05-14T09:39:00.185Z,14.60
2019-05-14T09:42:04.623Z,14.60
2019-05-14T09:45:11.411Z,14.60
2019-05-14T09:48:18.067Z,14.70
2019-05-14T09:51:22.355Z,15.00
2019-05-14T09:54:28.795Z,15.40
2019-05-14T09:57:33.717Z,15.20
2019-05-14T10:00:38.953Z,14.70
2019-05-14T10:03:44.086Z,14.60
2019-05-14T10:06:48.820Z,14.70
2019-05-14T10:09:53.557Z,14.70
2019-05-14T10:13:01.146Z,14.70
2019-05-14T10:16:04.156Z,14.80
2019-05-14T10:19:08.599Z,14.80
2019-05-14T10:22:13.036Z,14.90
2019-05-14T10:25:18.515Z,15.20
2019-05-14T10:28:22.952Z,15.80
2019-05-14T10:31:28.912Z,16.30
2019-05-14T10:34:33.605Z,16.40
2019-05-14T10:37:40.020Z,16.30
2019-05-14T10:40:44.230Z,16.10
2019-05-14T10:43:49.790Z,16.00
2019-05-14T10:46:54.378Z,15.60
2019-05-14T10:49:59.142Z,15.40
2019-05-14T10:53:04.020Z,15.30
2019-05-14T10:56:09.865Z,15.40
2019-05-14T10:59:14.762Z,15.40
2019-05-14T11:02:19.196Z,15.30
2019-05-14T11:05:23.638Z,15.20
2019-05-14T11:08:29.621Z,15.10
2019-05-14T11:11:34.381Z,14.80
2019-05-14T11:14:39.135Z,14.70
2019-05-14T11:17:43.572Z,14.90
2019-05-14T11:20:51.452Z,15.10
2019-05-14T11:23:54.458Z,15.70
2019-05-14T11:26:59.237Z,16.30
2019-05-14T11:30:04.859Z,16.40
2019-05-14T11:33:09.355Z,16.40
2019-05-14T11:36:13.794Z,16.40
2019-05-14T11:39:18.514Z,16.30
2019-05-14T11:42:22.961Z,16.10
2019-05-14T11:45:27.739Z,15.80
2019-05-14T11:48:32.180Z,15.80
2019-05-14T11:51:58.999Z,16.30
2019-05-14T11:54:42.772Z,16.70
2019-05-14T11:57:48.523Z,17.00
2019-05-14T12:00:53.042Z,17.00
2019-05-14T12:03:59.744Z,16.70
2019-05-14T12:07:03.968Z,16.50
2019-05-14T12:10:10.020Z,16.60
2019-05-14T12:13:14.461Z,16.90
2019-05-14T12:16:18.899Z,17.00
2019-05-14T12:19:23.339Z,16.60
2019-05-14T12:22:28.602Z,16.30
2019-05-14T12:25:33.331Z,16.50
2019-05-14T12:28:38.761Z,16.50
2019-05-14T12:31:43.424Z,16.40
2019-05-14T12:34:48.867Z,16.20
2019-05-14T12:37:53.481Z,16.00
2019-05-14T12:40:58.585Z,15.80
2019-05-14T12:44:03.607Z,15.60
2019-05-14T12:47:09.438Z,15.60
2019-05-14T12:50:14.700Z,16.00
2019-05-14T12:53:19.976Z,16.40
2019-05-14T12:56:24.999Z,16.60
2019-05-14T12:59:29.420Z,16.30
2019-05-14T13:02:33.858Z,15.50
2019-05-14T13:05:38.292Z,15.10
2019-05-14T13:08:42.735Z,15.10
2019-05-14T13:11:47.981Z,15.30
2019-05-14T13:14:52.617Z,15.50
2019-05-14T13:17:57.064Z,15.50
2019-05-14T13:21:01.498Z,15.70
2019-05-14T13:24:08.768Z,16.00
2019-05-14T13:27:12.394Z,16.50
2019-05-14T13:30:18.603Z,17.00
2019-05-14T13:33:23.496Z,17.00
2019-05-14T13:36:28.892Z,16.80
2019-05-14T13:39:33.600Z,16.50
2019-05-14T13:42:39.969Z,16.10
2019-05-14T13:45:45.267Z,15.70
2019-05-14T13:48:50.381Z,15.60
2019-05-14T13:51:54.940Z,15.60
2019-05-14T13:54:59.374Z,15.80
2019-05-14T13:58:04.820Z,15.80
2019-05-14T14:01:10.136Z,16.20
2019-05-14T14:04:15.248Z,16.40
2019-05-14T14:07:20.136Z,16.40
2019-05-14T14:10:24.988Z,16.30
2019-05-14T14:13:31.326Z,16.10
2019-05-14T14:16:36.169Z,16.00
2019-05-14T14:19:40.899Z,16.30
2019-05-14T14:22:45.347Z,16.80
2019-05-14T14:25:54.781Z,17.10
2019-05-14T14:28:55.969Z,17.40
2019-05-14T14:32:01.172Z,17.70
2019-05-14T14:35:08.710Z,18.00
2019-05-14T14:38:12.612Z,18.00
2019-05-14T14:41:19.405Z,17.60
2019-05-14T14:44:23.202Z,17.20
2019-05-14T14:47:29.340Z,17.10
2019-05-14T14:50:33.864Z,17.30
2019-05-14T14:53:52.967Z,17.60
2019-05-14T14:56:44.734Z,17.70
2019-05-14T14:59:49.184Z,17.30
2019-05-14T15:02:53.627Z,17.00
2019-05-14T15:05:58.937Z,16.60
2019-05-14T15:09:04.576Z,16.40
2019-05-14T15:12:09.231Z,16.40
2019-05-14T15:15:13.895Z,16.50
2019-05-14T15:18:18.882Z,16.60
2019-05-14T15:21:23.710Z,16.40
2019-05-14T15:24:28.222Z,16.20
2019-05-14T15:27:32.965Z,16.00
2019-05-14T15:30:39.608Z,15.70
2019-05-14T15:33:43.581Z,15.40
2019-05-14T15:36:49.189Z,15.30
2019-05-14T15:39:53.928Z,15.20
2019-05-14T15:43:01.920Z,15.50
2019-05-14T15:46:04.902Z,15.90
2019-05-14T15:49:09.681Z,16.40
2019-05-14T15:52:14.115Z,16.60
2019-05-14T15:55:18.550Z,16.50
2019-05-14T15:58:23.364Z,15.90
2019-05-14T16:01:28.561Z,15.40
2019-05-14T16:04:33.421Z,15.00
2019-05-14T16:07:39.140Z,14.80
2019-05-14T16:10:44.212Z,14.80
2019-05-14T16:13:49.366Z,14.70
2019-05-14T16:16:54.075Z,14.60
2019-05-14T16:19:58.533Z,14.60
2019-05-14T16:23:03.266Z,14.70
2019-05-14T16:26:08.914Z,14.60
2019-05-14T16:29:13.736Z,14.30
2019-05-14T16:32:18.455Z,14.00
2019-05-14T16:35:22.895Z,14.00
2019-05-14T16:38:28.534Z,14.20
2019-05-14T16:41:33.473Z,14.50
2019-05-14T16:44:39.110Z,14.80
2019-05-14T16:47:43.691Z,15.00
2019-05-14T16:50:48.927Z,15.00
2019-05-14T16:53:53.840Z,14.90
2019-05-14T16:56:58.316Z,14.70
2019-05-14T17:00:02.760Z,14.50
2019-05-14T17:03:08.276Z,14.10
2019-05-14T17:06:13.058Z,13.90
2019-05-14T17:09:18.748Z,13.90
2019-05-14T17:12:23.312Z,13.90
2019-05-14T17:15:28.776Z,13.90
2019-05-14T17:18:33.523Z,13.90
2019-05-14T17:21:39.050Z,13.90
2019-05-14T17:24:43.675Z,14.00
2019-05-14T17:27:48.569Z,14.10
2019-05-14T17:30:53.229Z,14.10
2019-05-14T17:33:58.492Z,14.00
2019-05-14T17:37:03.015Z,13.90
2019-05-14T17:40:09.384Z,13.90
2019-05-14T17:43:14.087Z,13.80
2019-05-14T17:46:19.165Z,13.80
2019-05-14T17:49:23.596Z,13.70
2019-05-14T17:52:30.141Z,13.70
2019-05-14T17:55:44.585Z,13.70
2019-05-14T17:58:40.741Z,13.70
2019-05-14T18:01:45.191Z,13.60
2019-05-14T18:04:49.905Z,13.50
2019-05-14T18:07:54.345Z,13.50
2019-05-14T18:11:01.553Z,13.50
2019-05-14T18:14:04.971Z,13.50
2019-05-14T18:17:09.481Z,13.50
2019-05-14T18:20:14.379Z,13.40
2019-05-14T18:23:18.823Z,13.20
2019-05-14T18:26:23.638Z,13.10
2019-05-14T18:29:29.555Z,13.10
2019-05-14T18:32:34.182Z,13.10
2019-05-14T18:35:45.267Z,13.00
2019-05-14T18:38:45.119Z,12.90
2019-05-14T18:41:50.131Z,12.80
2019-05-14T18:44:55.087Z,12.70
2019-05-14T18:47:59.819Z,12.60
2019-05-14T18:51:04.552Z,12.60
2019-05-14T18:54:08.989Z,12.50
2019-05-14T18:57:13.426Z,12.40
2019-05-14T19:00:18.726Z,12.40
2019-05-14T19:03:23.578Z,12.30
2019-05-14T19:06:28.493Z,12.30
2019-05-14T19:09:33.340Z,12.10
2019-05-14T19:12:38.723Z,12.10
2019-05-14T19:15:43.560Z,12.10
2019-05-14T19:18:48.952Z,12.10
2019-05-14T19:21:53.531Z,12.00
2019-05-14T19:24:58.697Z,12.00
2019-05-14T19:28:03.572Z,12.00
2019-05-14T19:31:09.179Z,12.00
2019-05-14T19:34:13.724Z,11.90
2019-05-14T19:37:19.070Z,11.90
2019-05-14T19:40:23.688Z,11.80
2019-05-14T19:43:29.131Z,11.80
2019-05-14T19:46:33.673Z,11.80
2019-05-14T19:49:38.502Z,11.80
2019-05-14T19:52:42.939Z,11.90
2019-05-14T19:55:48.557Z,11.90
2019-05-14T19:58:53.208Z,11.90
2019-05-14T20:01:58.917Z,11.80
2019-05-14T20:05:05.637Z,11.80
2019-05-14T20:08:10.093Z,11.70
2019-05-14T20:11:14.526Z,11.70
2019-05-14T20:14:18.966Z,11.70
2019-05-14T20:17:23.403Z,11.60
2019-05-14T20:20:28.790Z,11.60
2019-05-14T20:23:33.509Z,11.40
2019-05-14T20:26:38.974Z,11.30
2019-05-14T20:29:43.770Z,11.30
2019-05-14T20:32:49.588Z,11.20
2019-05-14T20:35:54.127Z,10.90
2019-05-14T20:38:58.990Z,10.80
2019-05-14T20:42:03.765Z,10.80
2019-05-14T20:45:08.749Z,10.60
2019-05-14T20:48:13.187Z,10.50
2019-05-14T20:51:18.596Z,10.30
2019-05-14T20:54:23.191Z,10.20
2019-05-14T20:57:32.939Z,10.20
2019-05-14T21:00:34.521Z,10.20
2019-05-14T21:03:39.231Z,10.20
2019-05-14T21:06:43.672Z,10.20
2019-05-14T21:09:49.270Z,10.30
2019-05-14T21:12:54.264Z,10.30
2019-05-14T21:15:58.709Z,10.40
2019-05-14T21:19:03.526Z,10.30
2019-05-14T21:22:08.485Z,10.30
2019-05-14T21:25:13.616Z,10.30
2019-05-14T21:28:18.058Z,10.30
2019-05-14T21:31:22.494Z,10.30
2019-05-14T21:34:28.229Z,10.20
2019-05-14T21:37:33.012Z,10.10
2019-05-14T21:40:39.003Z,10.10
2019-05-14T21:43:44.011Z,10.00
2019-05-14T21:46:48.444Z,9.90
2019-05-14T21:49:53.169Z,10.00
2019-05-14T21:52:59.700Z,9.90
2019-05-14T21:56:04.475Z,10.00
2019-05-14T21:59:09.666Z,9.90
2019-05-14T22:02:24.339Z,9.90
2019-05-14T22:05:21.458Z,9.80
2019-05-14T22:08:27.949Z,9.80
2019-05-14T22:11:32.831Z,9.80
2019-05-14T22:14:38.011Z,9.80
2019-05-14T22:17:42.903Z,9.80
2019-05-14T22:20:48.270Z,9.70
2019-05-14T22:23:53.185Z,9.70
2019-05-14T22:26:58.180Z,9.70
2019-05-14T22:30:03.577Z,9.50
2019-05-14T22:33:08.735Z,9.50
2019-05-14T22:36:13.648Z,9.50
2019-05-14T22:39:19.994Z,9.50
2019-05-14T22:42:24.238Z,9.40
2019-05-14T22:45:28.975Z,9.50
2019-05-14T22:48:33.699Z,9.50
2019-05-14T22:51:38.401Z,9.40
2019-05-14T22:54:43.043Z,9.40
2019-05-14T22:57:48.378Z,9.30
2019-05-14T23:01:12.860Z,9.20
2019-05-14T23:03:59.704Z,9.10
2019-05-14T23:07:04.316Z,9.10
2019-05-14T23:10:09.795Z,8.90
2019-05-14T23:13:14.235Z,8.90
2019-05-14T23:16:32.675Z,8.80
2019-05-14T23:19:25.203Z,8.70
2019-05-14T23:22:29.831Z,8.70
2019-05-14T23:25:34.338Z,8.50
2019-05-14T23:28:45.296Z,8.40
2019-05-14T23:31:45.242Z,8.30
2019-05-14T23:34:49.666Z,8.30
2019-05-14T23:37:54.166Z,8.20
2019-05-14T23:40:59.946Z,8.00
2019-05-14T23:44:04.437Z,7.90
2019-05-14T23:47:09.213Z,7.80
2019-05-14T23:50:13.823Z,7.70
2019-05-14T23:53:18.639Z,7.60
2019-05-14T23:56:23.405Z,7.50
2019-05-14T23:59:29.396Z,7.40
